logo
Rechercher aéroport 
image banner adimage banner adimage banner ad
image banner ad

LOBO - Hollabrunn Kh

Situé à District Hollabrunn, Austria

ICAO - , IATA -

Données fournies par Airmate  

Information générale

Coordonnées: N48°33'46" E16°5'30"
Élévation : 797 feet MSL.
 
Voir autres Aéroports à Lower Austria

Données opérationnelles

Special qualification required
Heure actuelle UTC:
Heure actuelle locale:
Météo à : LOXT - Tulln ( 27 km )
TAF: TAF LOXT 290815Z 2909/2918 24005KT 9999 FEW050 SCT300
Voir NOTAMs / SUP AIP / TFR affectant cet aéroport [VIEW]
Fréquences de communication: [VIEW]

Pistes:

Coordonnées de l'aéroport

Adresse: District Hollabrunn Austria

Vue satellite de LOBO